sensor_id;sensor_type;location;lat;lon;timestamp;temperature;humidity
55083;DHT22;40978;52.850;6.506;2023-07-30T00:01:13;15.00;99.90
55083;DHT22;40978;52.850;6.506;2023-07-30T00:03:38;15.00;99.90
55083;DHT22;40978;52.850;6.506;2023-07-30T00:06:04;15.00;99.90
55083;DHT22;40978;52.850;6.506;2023-07-30T00:08:30;15.00;99.90
55083;DHT22;40978;52.850;6.506;2023-07-30T00:10:59;15.00;99.90
55083;DHT22;40978;52.850;6.506;2023-07-30T00:13:25;15.00;99.90
55083;DHT22;40978;52.850;6.506;2023-07-30T00:15:51;14.90;99.90
55083;DHT22;40978;52.850;6.506;2023-07-30T00:18:16;14.90;99.90
55083;DHT22;40978;52.850;6.506;2023-07-30T00:20:42;14.90;99.90
55083;DHT22;40978;52.850;6.506;2023-07-30T00:23:08;14.90;99.90
55083;DHT22;40978;52.850;6.506;2023-07-30T00:25:34;14.90;99.90
55083;DHT22;40978;52.850;6.506;2023-07-30T00:27:59;14.80;99.90
55083;DHT22;40978;52.850;6.506;2023-07-30T00:30:25;14.80;99.90
55083;DHT22;40978;52.850;6.506;2023-07-30T00:32:51;14.80;99.90
55083;DHT22;40978;52.850;6.506;2023-07-30T00:35:17;14.80;99.90
55083;DHT22;40978;52.850;6.506;2023-07-30T00:37:44;14.70;99.90
55083;DHT22;40978;52.850;6.506;2023-07-30T00:40:10;14.70;99.90
55083;DHT22;40978;52.850;6.506;2023-07-30T00:42:35;14.70;99.90
55083;DHT22;40978;52.850;6.506;2023-07-30T00:45:01;14.60;99.90
55083;DHT22;40978;52.850;6.506;2023-07-30T00:47:28;14.60;99.90
55083;DHT22;40978;52.850;6.506;2023-07-30T00:49:54;14.60;99.90
55083;DHT22;40978;52.850;6.506;2023-07-30T00:52:21;14.60;99.90
55083;DHT22;40978;52.850;6.506;2023-07-30T00:54:48;14.60;99.90
55083;DHT22;40978;52.850;6.506;2023-07-30T00:57:15;14.50;99.90
55083;DHT22;40978;52.850;6.506;2023-07-30T00:59:42;14.50;99.90
55083;DHT22;40978;52.850;6.506;2023-07-30T01:02:09;14.50;99.90
55083;DHT22;40978;52.850;6.506;2023-07-30T01:04:36;14.50;99.90
55083;DHT22;40978;52.850;6.506;2023-07-30T01:07:03;14.50;99.90
55083;DHT22;40978;52.850;6.506;2023-07-30T01:09:29;14.40;99.90
55083;DHT22;40978;52.850;6.506;2023-07-30T01:11:55;14.40;99.90
55083;DHT22;40978;52.850;6.506;2023-07-30T01:14:22;14.40;99.90
55083;DHT22;40978;52.850;6.506;2023-07-30T01:16:49;14.40;99.90
55083;DHT22;40978;52.850;6.506;2023-07-30T01:19:15;14.40;99.90
55083;DHT22;40978;52.850;6.506;2023-07-30T01:21:41;14.40;99.90
55083;DHT22;40978;52.850;6.506;2023-07-30T01:24:06;14.30;99.90
55083;DHT22;40978;52.850;6.506;2023-07-30T01:26:43;14.30;99.90
55083;DHT22;40978;52.850;6.506;2023-07-30T01:29:16;14.30;99.90
55083;DHT22;40978;52.850;6.506;2023-07-30T01:31:48;14.30;99.90
55083;DHT22;40978;52.850;6.506;2023-07-30T01:34:19;14.30;99.90
55083;DHT22;40978;52.850;6.506;2023-07-30T01:36:45;14.30;99.90
55083;DHT22;40978;52.850;6.506;2023-07-30T01:39:12;14.30;99.90
55083;DHT22;40978;52.850;6.506;2023-07-30T01:41:39;14.30;99.90
55083;DHT22;40978;52.850;6.506;2023-07-30T01:44:04;14.30;99.90
55083;DHT22;40978;52.850;6.506;2023-07-30T01:46:30;14.30;99.90
55083;DHT22;40978;52.850;6.506;2023-07-30T01:48:56;14.30;99.90
55083;DHT22;40978;52.850;6.506;2023-07-30T01:51:22;14.30;99.90
55083;DHT22;40978;52.850;6.506;2023-07-30T01:53:47;14.30;99.90
55083;DHT22;40978;52.850;6.506;2023-07-30T01:56:13;14.30;99.90
55083;DHT22;40978;52.850;6.506;2023-07-30T01:58:39;14.30;99.90
55083;DHT22;40978;52.850;6.506;2023-07-30T02:01:05;14.30;99.90
55083;DHT22;40978;52.850;6.506;2023-07-30T02:03:30;14.30;99.90
55083;DHT22;40978;52.850;6.506;2023-07-30T02:05:56;14.30;99.90
55083;DHT22;40978;52.850;6.506;2023-07-30T02:08:22;14.30;99.90
55083;DHT22;40978;52.850;6.506;2023-07-30T02:10:57;14.30;99.90
55083;DHT22;40978;52.850;6.506;2023-07-30T02:13:24;14.30;99.90
55083;DHT22;40978;52.850;6.506;2023-07-30T02:15:50;14.20;99.90
55083;DHT22;40978;52.850;6.506;2023-07-30T02:18:15;14.20;99.90
55083;DHT22;40978;52.850;6.506;2023-07-30T02:20:41;14.20;99.90
55083;DHT22;40978;52.850;6.506;2023-07-30T02:23:07;14.10;99.90
55083;DHT22;40978;52.850;6.506;2023-07-30T02:25:34;14.10;99.90
55083;DHT22;40978;52.850;6.506;2023-07-30T02:28:00;14.10;99.90
55083;DHT22;40978;52.850;6.506;2023-07-30T02:30:29;14.10;99.90
55083;DHT22;40978;52.850;6.506;2023-07-30T02:32:55;14.00;99.90
55083;DHT22;40978;52.850;6.506;2023-07-30T02:35:20;14.10;99.90
55083;DHT22;40978;52.850;6.506;2023-07-30T02:37:46;14.00;99.90
55083;DHT22;40978;52.850;6.506;2023-07-30T02:40:15;14.00;99.90
55083;DHT22;40978;52.850;6.506;2023-07-30T02:42:40;14.00;99.90
55083;DHT22;40978;52.850;6.506;2023-07-30T02:45:10;14.00;99.90
55083;DHT22;40978;52.850;6.506;2023-07-30T02:47:38;14.00;99.90
55083;DHT22;40978;52.850;6.506;2023-07-30T02:50:04;14.00;99.90
55083;DHT22;40978;52.850;6.506;2023-07-30T02:52:31;14.00;99.90
55083;DHT22;40978;52.850;6.506;2023-07-30T02:54:57;14.00;99.90
55083;DHT22;40978;52.850;6.506;2023-07-30T02:57:23;14.00;99.90
55083;DHT22;40978;52.850;6.506;2023-07-30T02:59:48;14.00;99.90
55083;DHT22;40978;52.850;6.506;2023-07-30T03:02:14;14.00;99.90
55083;DHT22;40978;52.850;6.506;2023-07-30T03:04:40;14.00;99.90
55083;DHT22;40978;52.850;6.506;2023-07-30T03:07:06;14.00;99.90
55083;DHT22;40978;52.850;6.506;2023-07-30T03:09:32;14.00;99.90
55083;DHT22;40978;52.850;6.506;2023-07-30T03:11:59;14.00;99.90
55083;DHT22;40978;52.850;6.506;2023-07-30T03:14:24;14.00;99.90
55083;DHT22;40978;52.850;6.506;2023-07-30T03:16:50;14.00;99.90
55083;DHT22;40978;52.850;6.506;2023-07-30T03:19:16;14.00;99.90
55083;DHT22;40978;52.850;6.506;2023-07-30T03:21:43;14.00;99.90
55083;DHT22;40978;52.850;6.506;2023-07-30T03:24:09;13.90;99.90
55083;DHT22;40978;52.850;6.506;2023-07-30T03:26:35;14.10;99.90
55083;DHT22;40978;52.850;6.506;2023-07-30T03:29:00;14.00;99.90
55083;DHT22;40978;52.850;6.506;2023-07-30T03:31:26;14.10;99.90
55083;DHT22;40978;52.850;6.506;2023-07-30T03:33:54;14.10;99.90
55083;DHT22;40978;52.850;6.506;2023-07-30T03:36:20;14.10;99.90
55083;DHT22;40978;52.850;6.506;2023-07-30T03:38:46;14.10;99.90
55083;DHT22;40978;52.850;6.506;2023-07-30T03:41:11;14.10;99.90
55083;DHT22;40978;52.850;6.506;2023-07-30T03:43:38;14.00;99.90
55083;DHT22;40978;52.850;6.506;2023-07-30T03:46:04;14.10;99.90
55083;DHT22;40978;52.850;6.506;2023-07-30T03:48:30;14.00;99.90
55083;DHT22;40978;52.850;6.506;2023-07-30T03:50:56;14.00;99.90
55083;DHT22;40978;52.850;6.506;2023-07-30T03:53:22;14.00;99.90
55083;DHT22;40978;52.850;6.506;2023-07-30T03:55:49;14.00;99.90
55083;DHT22;40978;52.850;6.506;2023-07-30T03:58:15;14.00;99.90
55083;DHT22;40978;52.850;6.506;2023-07-30T04:00:41;13.90;99.90
55083;DHT22;40978;52.850;6.506;2023-07-30T04:03:06;13.90;99.90
55083;DHT22;40978;52.850;6.506;2023-07-30T04:05:32;13.90;99.90
55083;DHT22;40978;52.850;6.506;2023-07-30T04:07:58;13.90;99.90
55083;DHT22;40978;52.850;6.506;2023-07-30T04:10:24;13.90;99.90
55083;DHT22;40978;52.850;6.506;2023-07-30T04:12:49;13.90;99.90
55083;DHT22;40978;52.850;6.506;2023-07-30T04:15:16;13.90;99.90
55083;DHT22;40978;52.850;6.506;2023-07-30T04:17:42;13.80;99.90
55083;DHT22;40978;52.850;6.506;2023-07-30T04:20:09;13.90;99.90
55083;DHT22;40978;52.850;6.506;2023-07-30T04:22:36;13.80;99.90
55083;DHT22;40978;52.850;6.506;2023-07-30T04:25:10;13.80;99.90
55083;DHT22;40978;52.850;6.506;2023-07-30T04:27:39;13.90;99.90
55083;DHT22;40978;52.850;6.506;2023-07-30T04:30:05;13.90;99.90
55083;DHT22;40978;52.850;6.506;2023-07-30T04:32:31;13.90;99.90
55083;DHT22;40978;52.850;6.506;2023-07-30T04:34:57;13.90;99.90
55083;DHT22;40978;52.850;6.506;2023-07-30T04:37:23;13.90;99.90
55083;DHT22;40978;52.850;6.506;2023-07-30T04:39:49;14.00;99.90
55083;DHT22;40978;52.850;6.506;2023-07-30T04:42:15;14.00;99.90
55083;DHT22;40978;52.850;6.506;2023-07-30T04:44:41;14.10;99.90
55083;DHT22;40978;52.850;6.506;2023-07-30T04:47:07;14.20;99.90
55083;DHT22;40978;52.850;6.506;2023-07-30T04:49:33;14.20;99.90
55083;DHT22;40978;52.850;6.506;2023-07-30T04:51:59;14.30;99.90
55083;DHT22;40978;52.850;6.506;2023-07-30T04:54:24;14.40;99.90
55083;DHT22;40978;52.850;6.506;2023-07-30T04:56:51;14.50;99.90
55083;DHT22;40978;52.850;6.506;2023-07-30T04:59:16;14.60;99.90
55083;DHT22;40978;52.850;6.506;2023-07-30T05:01:42;14.70;99.90
55083;DHT22;40978;52.850;6.506;2023-07-30T05:04:09;14.80;99.90
55083;DHT22;40978;52.850;6.506;2023-07-30T05:06:34;14.90;99.90
55083;DHT22;40978;52.850;6.506;2023-07-30T05:09:00;15.00;99.90
55083;DHT22;40978;52.850;6.506;2023-07-30T05:11:26;15.00;99.90
55083;DHT22;40978;52.850;6.506;2023-07-30T05:13:51;15.10;99.90
55083;DHT22;40978;52.850;6.506;2023-07-30T05:16:17;15.20;99.90
55083;DHT22;40978;52.850;6.506;2023-07-30T05:18:43;15.20;99.90
55083;DHT22;40978;52.850;6.506;2023-07-30T05:21:09;15.30;99.90
55083;DHT22;40978;52.850;6.506;2023-07-30T05:23:35;15.40;99.90
55083;DHT22;40978;52.850;6.506;2023-07-30T05:26:01;15.40;99.90
55083;DHT22;40978;52.850;6.506;2023-07-30T05:28:26;15.50;99.90
55083;DHT22;40978;52.850;6.506;2023-07-30T05:30:52;15.50;99.90
55083;DHT22;40978;52.850;6.506;2023-07-30T05:33:18;15.60;99.90
55083;DHT22;40978;52.850;6.506;2023-07-30T05:35:44;15.70;99.90
55083;DHT22;40978;52.850;6.506;2023-07-30T05:38:12;15.80;99.90
55083;DHT22;40978;52.850;6.506;2023-07-30T05:40:38;15.80;99.90
55083;DHT22;40978;52.850;6.506;2023-07-30T05:43:05;15.90;99.90
55083;DHT22;40978;52.850;6.506;2023-07-30T05:45:31;16.00;99.90
55083;DHT22;40978;52.850;6.506;2023-07-30T05:47:57;16.00;99.90
55083;DHT22;40978;52.850;6.506;2023-07-30T05:50:22;16.10;99.90
55083;DHT22;40978;52.850;6.506;2023-07-30T05:52:48;16.10;99.90
55083;DHT22;40978;52.850;6.506;2023-07-30T05:55:14;16.20;99.90
55083;DHT22;40978;52.850;6.506;2023-07-30T05:57:40;16.30;99.90
55083;DHT22;40978;52.850;6.506;2023-07-30T06:00:06;16.30;99.90
55083;DHT22;40978;52.850;6.506;2023-07-30T06:02:32;16.40;99.90
55083;DHT22;40978;52.850;6.506;2023-07-30T06:04:57;16.40;99.90
55083;DHT22;40978;52.850;6.506;2023-07-30T06:07:23;16.50;99.90
55083;DHT22;40978;52.850;6.506;2023-07-30T06:09:49;16.60;99.90
55083;DHT22;40978;52.850;6.506;2023-07-30T06:12:15;16.60;99.90
55083;DHT22;40978;52.850;6.506;2023-07-30T06:14:40;16.70;99.90
55083;DHT22;40978;52.850;6.506;2023-07-30T06:17:06;16.70;99.90
55083;DHT22;40978;52.850;6.506;2023-07-30T06:19:32;16.80;99.90
55083;DHT22;40978;52.850;6.506;2023-07-30T06:21:58;16.90;99.90
55083;DHT22;40978;52.850;6.506;2023-07-30T06:24:25;16.90;99.90
55083;DHT22;40978;52.850;6.506;2023-07-30T06:26:51;16.90;99.90
55083;DHT22;40978;52.850;6.506;2023-07-30T06:29:20;17.00;99.90
55083;DHT22;40978;52.850;6.506;2023-07-30T06:31:46;17.00;99.90
55083;DHT22;40978;52.850;6.506;2023-07-30T06:34:11;17.00;99.90
55083;DHT22;40978;52.850;6.506;2023-07-30T06:36:37;17.00;99.90
55083;DHT22;40978;52.850;6.506;2023-07-30T06:39:03;17.00;99.90
55083;DHT22;40978;52.850;6.506;2023-07-30T06:41:29;17.10;99.90
55083;DHT22;40978;52.850;6.506;2023-07-30T06:43:54;17.10;99.90
55083;DHT22;40978;52.850;6.506;2023-07-30T06:46:20;17.10;99.90
55083;DHT22;40978;52.850;6.506;2023-07-30T06:48:46;17.20;99.90
55083;DHT22;40978;52.850;6.506;2023-07-30T06:51:12;17.30;99.90
55083;DHT22;40978;52.850;6.506;2023-07-30T06:53:39;17.40;99.90
55083;DHT22;40978;52.850;6.506;2023-07-30T06:56:05;17.50;99.90
55083;DHT22;40978;52.850;6.506;2023-07-30T06:58:30;17.50;99.90
55083;DHT22;40978;52.850;6.506;2023-07-30T07:00:56;17.60;99.90
55083;DHT22;40978;52.850;6.506;2023-07-30T07:03:22;17.70;99.90
55083;DHT22;40978;52.850;6.506;2023-07-30T07:05:55;17.80;99.90
55083;DHT22;40978;52.850;6.506;2023-07-30T07:08:21;17.90;99.90
55083;DHT22;40978;52.850;6.506;2023-07-30T07:10:47;18.00;99.90
55083;DHT22;40978;52.850;6.506;2023-07-30T07:13:13;18.10;99.90
55083;DHT22;40978;52.850;6.506;2023-07-30T07:15:44;18.30;99.90
55083;DHT22;40978;52.850;6.506;2023-07-30T07:18:10;18.30;99.90
55083;DHT22;40978;52.850;6.506;2023-07-30T07:20:36;18.40;99.90
55083;DHT22;40978;52.850;6.506;2023-07-30T07:23:03;18.50;99.90
55083;DHT22;40978;52.850;6.506;2023-07-30T07:25:29;18.60;99.90
55083;DHT22;40978;52.850;6.506;2023-07-30T07:27:54;18.60;99.90
55083;DHT22;40978;52.850;6.506;2023-07-30T07:30:23;18.70;99.90
55083;DHT22;40978;52.850;6.506;2023-07-30T07:32:48;18.80;99.90
55083;DHT22;40978;52.850;6.506;2023-07-30T07:35:19;19.00;99.90
55083;DHT22;40978;52.850;6.506;2023-07-30T07:37:48;19.20;99.90
55083;DHT22;40978;52.850;6.506;2023-07-30T07:40:14;19.40;99.90
55083;DHT22;40978;52.850;6.506;2023-07-30T07:42:39;19.60;99.90
55083;DHT22;40978;52.850;6.506;2023-07-30T07:45:06;19.60;99.90
55083;DHT22;40978;52.850;6.506;2023-07-30T07:47:34;19.50;99.90
55083;DHT22;40978;52.850;6.506;2023-07-30T07:49:59;19.30;99.90
55083;DHT22;40978;52.850;6.506;2023-07-30T07:52:25;19.20;99.90
55083;DHT22;40978;52.850;6.506;2023-07-30T07:54:51;19.30;99.90
55083;DHT22;40978;52.850;6.506;2023-07-30T07:57:17;19.40;99.90
55083;DHT22;40978;52.850;6.506;2023-07-30T07:59:42;19.60;99.90
55083;DHT22;40978;52.850;6.506;2023-07-30T08:02:11;19.90;99.90
55083;DHT22;40978;52.850;6.506;2023-07-30T08:04:37;20.20;99.90
55083;DHT22;40978;52.850;6.506;2023-07-30T08:07:04;20.30;99.90
55083;DHT22;40978;52.850;6.506;2023-07-30T08:09:31;20.50;99.90
55083;DHT22;40978;52.850;6.506;2023-07-30T08:11:56;20.40;99.90
55083;DHT22;40978;52.850;6.506;2023-07-30T08:14:22;20.60;99.90
55083;DHT22;40978;52.850;6.506;2023-07-30T08:16:48;20.60;99.90
55083;DHT22;40978;52.850;6.506;2023-07-30T08:19:14;20.60;99.90
55083;DHT22;40978;52.850;6.506;2023-07-30T08:21:40;20.60;99.90
55083;DHT22;40978;52.850;6.506;2023-07-30T08:24:05;20.40;99.90
55083;DHT22;40978;52.850;6.506;2023-07-30T08:26:32;20.40;99.90
55083;DHT22;40978;52.850;6.506;2023-07-30T08:28:58;20.30;99.90
55083;DHT22;40978;52.850;6.506;2023-07-30T08:31:24;20.30;99.90
55083;DHT22;40978;52.850;6.506;2023-07-30T08:33:50;20.20;99.90
55083;DHT22;40978;52.850;6.506;2023-07-30T08:36:15;20.00;99.90
55083;DHT22;40978;52.850;6.506;2023-07-30T08:38:41;19.90;99.90
55083;DHT22;40978;52.850;6.506;2023-07-30T08:41:07;19.70;99.90
55083;DHT22;40978;52.850;6.506;2023-07-30T08:43:34;19.50;99.90
55083;DHT22;40978;52.850;6.506;2023-07-30T08:46:00;19.50;99.90
55083;DHT22;40978;52.850;6.506;2023-07-30T08:48:26;19.30;99.90
55083;DHT22;40978;52.850;6.506;2023-07-30T08:50:54;19.20;99.90
55083;DHT22;40978;52.850;6.506;2023-07-30T08:53:21;19.10;99.90
55083;DHT22;40978;52.850;6.506;2023-07-30T08:55:47;19.00;99.90
55083;DHT22;40978;52.850;6.506;2023-07-30T08:58:14;18.90;99.90
55083;DHT22;40978;52.850;6.506;2023-07-30T09:00:42;18.90;99.90
55083;DHT22;40978;52.850;6.506;2023-07-30T09:03:08;18.80;99.90
55083;DHT22;40978;52.850;6.506;2023-07-30T09:05:35;18.80;99.90
55083;DHT22;40978;52.850;6.506;2023-07-30T09:08:01;18.80;99.90
55083;DHT22;40978;52.850;6.506;2023-07-30T09:10:27;18.80;99.90
55083;DHT22;40978;52.850;6.506;2023-07-30T09:12:54;18.80;99.90
55083;DHT22;40978;52.850;6.506;2023-07-30T09:15:35;18.80;99.90
55083;DHT22;40978;52.850;6.506;2023-07-30T09:18:05;18.80;99.90
55083;DHT22;40978;52.850;6.506;2023-07-30T09:20:42;18.70;99.90
55083;DHT22;40978;52.850;6.506;2023-07-30T09:23:09;18.70;99.90
55083;DHT22;40978;52.850;6.506;2023-07-30T09:25:36;18.70;99.90
55083;DHT22;40978;52.850;6.506;2023-07-30T09:28:02;18.70;99.90
55083;DHT22;40978;52.850;6.506;2023-07-30T09:30:28;18.70;99.90
55083;DHT22;40978;52.850;6.506;2023-07-30T09:32:55;18.70;99.90
55083;DHT22;40978;52.850;6.506;2023-07-30T09:35:22;18.80;99.90
55083;DHT22;40978;52.850;6.506;2023-07-30T09:37:50;18.70;99.90
55083;DHT22;40978;52.850;6.506;2023-07-30T09:40:31;18.50;99.90
55083;DHT22;40978;52.850;6.506;2023-07-30T09:42:57;18.10;99.90
55083;DHT22;40978;52.850;6.506;2023-07-30T09:45:25;17.70;99.90
55083;DHT22;40978;52.850;6.506;2023-07-30T09:47:52;17.40;99.90
55083;DHT22;40978;52.850;6.506;2023-07-30T09:50:19;17.20;99.90
55083;DHT22;40978;52.850;6.506;2023-07-30T09:52:45;17.00;99.90
55083;DHT22;40978;52.850;6.506;2023-07-30T09:55:11;16.70;99.90
55083;DHT22;40978;52.850;6.506;2023-07-30T09:57:38;16.50;99.90
55083;DHT22;40978;52.850;6.506;2023-07-30T10:00:06;16.40;99.90
55083;DHT22;40978;52.850;6.506;2023-07-30T10:02:48;16.30;99.90
55083;DHT22;40978;52.850;6.506;2023-07-30T10:05:18;16.20;99.90
55083;DHT22;40978;52.850;6.506;2023-07-30T10:08:11;16.20;99.90
55083;DHT22;40978;52.850;6.506;2023-07-30T10:10:39;16.20;99.90
55083;DHT22;40978;52.850;6.506;2023-07-30T10:13:09;16.30;99.90
55083;DHT22;40978;52.850;6.506;2023-07-30T10:15:39;16.40;99.90
55083;DHT22;40978;52.850;6.506;2023-07-30T10:18:05;16.50;99.90
55083;DHT22;40978;52.850;6.506;2023-07-30T10:20:32;16.80;99.90
55083;DHT22;40978;52.850;6.506;2023-07-30T10:22:59;17.10;99.90
55083;DHT22;40978;52.850;6.506;2023-07-30T10:25:46;17.60;99.90
55083;DHT22;40978;52.850;6.506;2023-07-30T10:28:39;18.20;99.90
55083;DHT22;40978;52.850;6.506;2023-07-30T10:31:09;18.80;99.90
55083;DHT22;40978;52.850;6.506;2023-07-30T10:34:01;19.30;99.90
55083;DHT22;40978;52.850;6.506;2023-07-30T10:36:33;19.60;99.90
55083;DHT22;40978;52.850;6.506;2023-07-30T10:39:17;19.90;99.90
55083;DHT22;40978;52.850;6.506;2023-07-30T10:41:44;20.20;99.90
55083;DHT22;40978;52.850;6.506;2023-07-30T10:44:25;20.20;99.90
55083;DHT22;40978;52.850;6.506;2023-07-30T10:46:54;20.40;99.90
55083;DHT22;40978;52.850;6.506;2023-07-30T10:49:20;20.80;99.90
55083;DHT22;40978;52.850;6.506;2023-07-30T10:51:47;21.20;99.90
55083;DHT22;40978;52.850;6.506;2023-07-30T10:54:12;21.50;99.90
55083;DHT22;40978;52.850;6.506;2023-07-30T10:56:38;21.80;99.90
55083;DHT22;40978;52.850;6.506;2023-07-30T10:59:06;22.00;99.90
55083;DHT22;40978;52.850;6.506;2023-07-30T11:01:39;22.20;99.90
55083;DHT22;40978;52.850;6.506;2023-07-30T11:04:07;22.50;99.90
55083;DHT22;40978;52.850;6.506;2023-07-30T11:06:33;22.70;99.90
55083;DHT22;40978;52.850;6.506;2023-07-30T11:08:59;22.80;99.90
55083;DHT22;40978;52.850;6.506;2023-07-30T11:11:24;22.80;99.90
55083;DHT22;40978;52.850;6.506;2023-07-30T11:13:51;22.80;99.90
55083;DHT22;40978;52.850;6.506;2023-07-30T11:16:17;22.60;99.90
55083;DHT22;40978;52.850;6.506;2023-07-30T11:18:44;22.40;99.90
55083;DHT22;40978;52.850;6.506;2023-07-30T11:21:11;22.50;99.90
55083;DHT22;40978;52.850;6.506;2023-07-30T11:23:40;22.80;99.90
55083;DHT22;40978;52.850;6.506;2023-07-30T11:26:12;23.00;99.90
55083;DHT22;40978;52.850;6.506;2023-07-30T11:28:39;23.10;99.90
55083;DHT22;40978;52.850;6.506;2023-07-30T11:31:09;23.10;99.90
55083;DHT22;40978;52.850;6.506;2023-07-30T11:33:37;23.30;99.90
55083;DHT22;40978;52.850;6.506;2023-07-30T11:36:04;23.60;99.90
55083;DHT22;40978;52.850;6.506;2023-07-30T11:38:31;23.80;99.90
55083;DHT22;40978;52.850;6.506;2023-07-30T11:40:57;24.10;99.90
55083;DHT22;40978;52.850;6.506;2023-07-30T11:43:23;24.00;99.90
55083;DHT22;40978;52.850;6.506;2023-07-30T11:46:05;23.60;99.90
55083;DHT22;40978;52.850;6.506;2023-07-30T11:48:31;23.70;99.90
55083;DHT22;40978;52.850;6.506;2023-07-30T11:50:56;23.70;99.90
55083;DHT22;40978;52.850;6.506;2023-07-30T11:53:22;23.50;99.90
55083;DHT22;40978;52.850;6.506;2023-07-30T11:56:18;23.40;99.90
55083;DHT22;40978;52.850;6.506;2023-07-30T11:58:46;23.10;99.90
55083;DHT22;40978;52.850;6.506;2023-07-30T12:01:13;22.70;99.90
55083;DHT22;40978;52.850;6.506;2023-07-30T12:03:39;22.40;99.90
55083;DHT22;40978;52.850;6.506;2023-07-30T12:06:07;22.10;99.90
55083;DHT22;40978;52.850;6.506;2023-07-30T12:08:34;21.80;99.90
55083;DHT22;40978;52.850;6.506;2023-07-30T12:11:05;21.70;99.90
55083;DHT22;40978;52.850;6.506;2023-07-30T12:13:31;21.60;99.90
55083;DHT22;40978;52.850;6.506;2023-07-30T12:15:57;21.50;99.90
55083;DHT22;40978;52.850;6.506;2023-07-30T12:18:25;21.40;99.90
55083;DHT22;40978;52.850;6.506;2023-07-30T12:20:51;21.30;99.90
55083;DHT22;40978;52.850;6.506;2023-07-30T12:23:18;21.10;99.90
55083;DHT22;40978;52.850;6.506;2023-07-30T12:25:44;21.00;99.90
55083;DHT22;40978;52.850;6.506;2023-07-30T12:28:10;20.90;99.90
55083;DHT22;40978;52.850;6.506;2023-07-30T12:30:35;20.80;99.90
55083;DHT22;40978;52.850;6.506;2023-07-30T12:33:03;21.00;99.90
55083;DHT22;40978;52.850;6.506;2023-07-30T12:35:29;21.40;99.90
55083;DHT22;40978;52.850;6.506;2023-07-30T12:37:55;22.20;99.90
55083;DHT22;40978;52.850;6.506;2023-07-30T12:40:21;22.70;99.90
55083;DHT22;40978;52.850;6.506;2023-07-30T12:42:47;22.90;99.90
55083;DHT22;40978;52.850;6.506;2023-07-30T12:45:12;22.70;99.90
55083;DHT22;40978;52.850;6.506;2023-07-30T12:47:40;22.20;99.90
55083;DHT22;40978;52.850;6.506;2023-07-30T12:50:06;21.60;99.90
55083;DHT22;40978;52.850;6.506;2023-07-30T12:52:34;20.80;99.90
55083;DHT22;40978;52.850;6.506;2023-07-30T12:55:01;20.30;99.90
55083;DHT22;40978;52.850;6.506;2023-07-30T12:57:28;19.80;99.90
55083;DHT22;40978;52.850;6.506;2023-07-30T12:59:54;19.60;99.90
55083;DHT22;40978;52.850;6.506;2023-07-30T13:02:19;19.40;99.90
55083;DHT22;40978;52.850;6.506;2023-07-30T13:04:45;19.30;99.90
55083;DHT22;40978;52.850;6.506;2023-07-30T13:07:11;19.40;99.90
55083;DHT22;40978;52.850;6.506;2023-07-30T13:09:36;19.90;99.90
55083;DHT22;40978;52.850;6.506;2023-07-30T13:12:02;20.30;99.90
55083;DHT22;40978;52.850;6.506;2023-07-30T13:14:28;20.60;99.90
55083;DHT22;40978;52.850;6.506;2023-07-30T13:16:54;21.00;99.90
55083;DHT22;40978;52.850;6.506;2023-07-30T13:19:20;21.20;99.90
55083;DHT22;40978;52.850;6.506;2023-07-30T13:21:45;21.40;99.90
55083;DHT22;40978;52.850;6.506;2023-07-30T13:24:11;21.50;99.90
55083;DHT22;40978;52.850;6.506;2023-07-30T13:26:37;21.50;99.90
55083;DHT22;40978;52.850;6.506;2023-07-30T13:29:04;21.20;99.90
55083;DHT22;40978;52.850;6.506;2023-07-30T13:31:30;20.70;99.90
55083;DHT22;40978;52.850;6.506;2023-07-30T13:33:56;20.30;99.90
55083;DHT22;40978;52.850;6.506;2023-07-30T13:36:22;20.00;99.90
55083;DHT22;40978;52.850;6.506;2023-07-30T13:38:47;19.80;99.90
55083;DHT22;40978;52.850;6.506;2023-07-30T13:41:13;19.60;99.90
55083;DHT22;40978;52.850;6.506;2023-07-30T13:43:39;19.40;99.90
55083;DHT22;40978;52.850;6.506;2023-07-30T13:46:05;19.50;99.90
55083;DHT22;40978;52.850;6.506;2023-07-30T13:48:31;19.80;99.90
55083;DHT22;40978;52.850;6.506;2023-07-30T13:50:56;20.20;99.90
55083;DHT22;40978;52.850;6.506;2023-07-30T13:53:22;20.50;99.90
55083;DHT22;40978;52.850;6.506;2023-07-30T13:55:49;20.80;99.90
55083;DHT22;40978;52.850;6.506;2023-07-30T13:58:14;20.90;99.90
55083;DHT22;40978;52.850;6.506;2023-07-30T14:00:41;20.80;99.90
55083;DHT22;40978;52.850;6.506;2023-07-30T14:03:08;20.70;99.90
55083;DHT22;40978;52.850;6.506;2023-07-30T14:05:33;20.50;99.90
55083;DHT22;40978;52.850;6.506;2023-07-30T14:08:00;20.10;99.90
55083;DHT22;40978;52.850;6.506;2023-07-30T14:10:26;19.70;99.90
55083;DHT22;40978;52.850;6.506;2023-07-30T14:12:53;19.30;99.90
55083;DHT22;40978;52.850;6.506;2023-07-30T14:15:18;18.90;99.90
55083;DHT22;40978;52.850;6.506;2023-07-30T14:17:44;18.60;99.90
55083;DHT22;40978;52.850;6.506;2023-07-30T14:20:10;18.50;99.90
55083;DHT22;40978;52.850;6.506;2023-07-30T14:22:36;18.40;99.90
55083;DHT22;40978;52.850;6.506;2023-07-30T14:25:02;18.50;99.90
55083;DHT22;40978;52.850;6.506;2023-07-30T14:27:28;18.80;99.90
55083;DHT22;40978;52.850;6.506;2023-07-30T14:29:54;19.00;99.90
55083;DHT22;40978;52.850;6.506;2023-07-30T14:32:20;19.20;99.90
55083;DHT22;40978;52.850;6.506;2023-07-30T14:34:46;19.30;99.90
55083;DHT22;40978;52.850;6.506;2023-07-30T14:37:12;19.50;99.90
55083;DHT22;40978;52.850;6.506;2023-07-30T14:39:38;19.60;99.90
55083;DHT22;40978;52.850;6.506;2023-07-30T14:42:05;19.60;99.90
55083;DHT22;40978;52.850;6.506;2023-07-30T14:44:30;19.60;99.90
55083;DHT22;40978;52.850;6.506;2023-07-30T14:46:56;19.60;99.90
55083;DHT22;40978;52.850;6.506;2023-07-30T14:49:24;19.60;99.90
55083;DHT22;40978;52.850;6.506;2023-07-30T14:51:49;19.50;99.90
55083;DHT22;40978;52.850;6.506;2023-07-30T14:54:17;19.40;99.90
55083;DHT22;40978;52.850;6.506;2023-07-30T14:56:43;19.40;99.90
55083;DHT22;40978;52.850;6.506;2023-07-30T14:59:09;19.40;99.90
55083;DHT22;40978;52.850;6.506;2023-07-30T15:01:35;19.50;99.90
55083;DHT22;40978;52.850;6.506;2023-07-30T15:04:01;19.50;99.90
55083;DHT22;40978;52.850;6.506;2023-07-30T15:06:26;19.40;99.90
55083;DHT22;40978;52.850;6.506;2023-07-30T15:08:55;19.50;99.90
55083;DHT22;40978;52.850;6.506;2023-07-30T15:11:21;19.40;99.90
55083;DHT22;40978;52.850;6.506;2023-07-30T15:13:47;19.30;99.90
55083;DHT22;40978;52.850;6.506;2023-07-30T15:16:12;19.20;99.90
55083;DHT22;40978;52.850;6.506;2023-07-30T15:18:38;19.10;99.90
55083;DHT22;40978;52.850;6.506;2023-07-30T15:21:04;19.10;99.90
55083;DHT22;40978;52.850;6.506;2023-07-30T15:23:30;19.10;99.90
55083;DHT22;40978;52.850;6.506;2023-07-30T15:25:55;19.30;99.90
55083;DHT22;40978;52.850;6.506;2023-07-30T15:28:21;19.60;99.90